Time;durP1;ratioP1;P1;durP2;ratioP2;P2;SDS_P1;SDS_P2;PMS_P1;PMS_P2;Temp;Humidity;BMP_temperature;BMP_pressure;BME280_temperature;BME280_humidity;BME280_pressure;Samples;Min_cycle;Max_cycle;Signal;HPM_P1;HPM_P2
2021/06/08 00:00:41;;;;;;;6.30;5.70;;;19.00;86.90;;;;;;4990651;28;20113;-72
2021/06/08 00:03:07;;;;;;;7.10;5.45;;;19.00;87.20;;;;;;4962412;28;20062;-72
2021/06/08 00:05:33;;;;;;;5.40;4.90;;;19.00;86.30;;;;;;4975354;28;20027;-73
2021/06/08 00:08:00;;;;;;;6.22;5.22;;;19.00;86.30;;;;;;4974385;28;20889;-72
2021/06/08 00:10:26;;;;;;;6.30;5.70;;;19.00;86.10;;;;;;4975520;28;20507;-73
2021/06/08 00:12:52;;;;;;;6.47;5.30;;;19.00;85.90;;;;;;4975525;28;20109;-72
2021/06/08 00:15:18;;;;;;;7.25;6.18;;;19.00;85.40;;;;;;4985386;28;20037;-73
2021/06/08 00:17:47;;;;;;;7.50;5.95;;;18.90;84.60;;;;;;4975704;28;20030;-73
2021/06/08 00:20:14;;;;;;;6.80;6.10;;;18.90;85.20;;;;;;4974586;28;20026;-72
2021/06/08 00:22:40;;;;;;;7.00;5.93;;;18.90;85.50;;;;;;4961800;28;20026;-72
2021/06/08 00:25:06;;;;;;;6.93;5.93;;;19.00;85.90;;;;;;4973867;28;20041;-72
2021/06/08 00:27:32;;;;;;;11.23;8.25;;;19.00;86.20;;;;;;4959909;28;20486;-73
2021/06/08 00:29:58;;;;;;;7.38;6.65;;;19.00;86.70;;;;;;4972628;28;20030;-72
2021/06/08 00:32:23;;;;;;;8.23;7.35;;;18.90;86.80;;;;;;4974219;28;20031;-72
2021/06/08 00:34:49;;;;;;;8.75;7.07;;;18.90;87.10;;;;;;4980421;28;20029;-73
2021/06/08 00:37:15;;;;;;;8.85;7.78;;;18.90;87.40;;;;;;4970779;28;20511;-72
2021/06/08 00:39:41;;;;;;;9.95;8.35;;;18.90;87.70;;;;;;4975968;28;20039;-73
2021/06/08 01:35:16;;;;;;;10.13;9.02;;;18.60;89.30;;;;;;4980594;28;20444;-72
2021/06/08 01:37:45;;;;;;;10.88;9.63;;;18.60;89.40;;;;;;4979274;28;20061;-73
2021/06/08 01:40:15;;;;;;;10.15;9.13;;;18.60;89.70;;;;;;4963998;28;20121;-72
2021/06/08 01:42:41;;;;;;;15.82;10.50;;;18.60;89.70;;;;;;4978612;28;20169;-72
2021/06/08 01:45:08;;;;;;;10.23;9.23;;;18.60;89.90;;;;;;4975729;28;20046;-73
2021/06/08 01:47:33;;;;;;;15.20;10.50;;;18.50;89.90;;;;;;4972009;28;20034;-73
2021/06/08 01:49:59;;;;;;;11.05;9.95;;;18.50;90.00;;;;;;4961085;28;20031;-73
2021/06/08 01:52:35;;;;;;;13.95;10.07;;;18.50;90.10;;;;;;4964931;28;20085;-72
2021/06/08 01:55:13;;;;;;;11.20;9.60;;;18.50;90.10;;;;;;4973837;28;20441;-73
2021/06/08 01:57:50;;;;;;;12.88;10.85;;;18.50;90.20;;;;;;4979217;28;20093;-73
2021/06/08 02:00:19;;;;;;;13.50;10.93;;;18.50;90.20;;;;;;4972954;28;20415;-72
2021/06/08 02:03:07;;;;;;;11.60;8.95;;;18.40;90.20;;;;;;4955305;28;20035;-73
2021/06/08 02:05:42;;;;;;;12.13;9.98;;;18.50;90.20;;;;;;4974037;28;20030;-73
2021/06/08 02:08:36;;;;;;;11.90;9.73;;;18.50;90.30;;;;;;4971544;28;20035;-72
2021/06/08 02:11:22;;;;;;;11.68;9.73;;;18.50;90.30;;;;;;4972223;28;20038;-72
2021/06/08 02:14:01;;;;;;;10.13;9.13;;;18.40;90.30;;;;;;4974426;28;20381;-73
2021/06/08 02:16:33;;;;;;;12.00;10.80;;;18.40;90.40;;;;;;4964649;28;20527;-73
2021/06/08 02:18:59;;;;;;;11.30;9.75;;;18.40;90.40;;;;;;4971908;28;20404;-73
2021/06/08 02:21:34;;;;;;;9.93;8.93;;;18.40;90.40;;;;;;4972530;28;20031;-74
2021/06/08 02:24:02;;;;;;;10.80;9.70;;;18.40;90.40;;;;;;4971820;28;20126;-72
2021/06/08 02:26:30;;;;;;;11.07;9.55;;;18.40;90.60;;;;;;4973260;28;20121;-73
2021/06/08 02:28:58;;;;;;;12.13;9.73;;;18.40;90.50;;;;;;4973409;28;20105;-73
2021/06/08 02:31:26;;;;;;;12.20;10.07;;;18.40;90.50;;;;;;4975810;28;20041;-72
2021/06/08 02:33:53;;;;;;;11.73;10.52;;;18.40;90.50;;;;;;4973486;28;20027;-73
2021/06/08 02:36:19;;;;;;;12.90;10.63;;;18.30;90.50;;;;;;4973110;28;20070;-73
2021/06/08 02:38:47;;;;;;;13.30;10.18;;;18.30;90.60;;;;;;4974029;28;20045;-72
2021/06/08 02:41:14;;;;;;;10.48;9.38;;;18.20;90.60;;;;;;4975822;28;20035;-73
2021/06/08 02:43:43;;;;;;;13.45;10.35;;;18.20;90.60;;;;;;4987229;28;20030;-73
2021/06/08 02:46:09;;;;;;;13.68;10.18;;;18.20;90.60;;;;;;4976892;28;20084;-72
2021/06/08 02:48:36;;;;;;;11.25;10.05;;;18.20;90.60;;;;;;4971641;28;20034;-72
2021/06/08 02:51:03;;;;;;;12.65;10.00;;;18.20;90.60;;;;;;4972649;28;20109;-73
2021/06/08 02:53:29;;;;;;;9.60;8.70;;;18.20;90.70;;;;;;4971187;28;20037;-72
2021/06/08 02:55:56;;;;;;;9.70;8.25;;;18.20;90.60;;;;;;4976630;28;20046;-72
2021/06/08 02:58:24;;;;;;;10.77;9.18;;;18.20;90.60;;;;;;4974280;28;20027;-72
2021/06/08 03:00:50;;;;;;;11.48;9.50;;;18.20;90.70;;;;;;4975091;28;20533;-72
2021/06/08 03:03:23;;;;;;;11.18;10.07;;;18.20;90.70;;;;;;4978244;28;20142;-73
2021/06/08 03:05:54;;;;;;;10.32;8.55;;;18.20;90.70;;;;;;4975804;28;20065;-73
2021/06/08 03:08:29;;;;;;;10.90;8.80;;;18.10;90.70;;;;;;4976080;28;20034;-73
2021/06/08 03:10:57;;;;;;;10.57;8.05;;;18.10;90.70;;;;;;4978023;28;20515;-73
2021/06/08 03:13:24;;;;;;;11.68;8.13;;;18.10;90.70;;;;;;4976390;28;20517;-74
2021/06/08 03:15:58;;;;;;;10.82;9.20;;;18.20;90.70;;;;;;4995253;28;20076;-72
2021/06/08 03:18:28;;;;;;;11.07;9.00;;;18.20;90.80;;;;;;4979684;28;20030;-72
2021/06/08 03:21:10;;;;;;;10.43;8.40;;;18.20;90.80;;;;;;4975946;28;20078;-73
2021/06/08 03:23:41;;;;;;;11.00;8.55;;;18.10;90.80;;;;;;4978272;28;20035;-73
2021/06/08 03:26:08;;;;;;;11.38;7.78;;;18.10;90.80;;;;;;4980771;28;20065;-72
2021/06/08 03:28:35;;;;;;;10.55;8.98;;;18.10;90.70;;;;;;4977565;28;20026;-73
2021/06/08 03:31:02;;;;;;;10.90;9.40;;;18.10;90.70;;;;;;4975725;28;20031;-72
2021/06/08 03:33:30;;;;;;;13.05;9.95;;;18.10;90.70;;;;;;4975777;28;20035;-73
2021/06/08 03:35:56;;;;;;;12.15;9.85;;;18.10;90.80;;;;;;4975190;28;20097;-73
2021/06/08 03:38:27;;;;;;;10.70;9.60;;;18.10;91.00;;;;;;4975092;28;20043;-72
2021/06/08 03:40:54;;;;;;;11.52;9.57;;;18.10;90.80;;;;;;4975149;28;20057;-72
2021/06/08 03:43:22;;;;;;;10.38;8.85;;;18.10;90.80;;;;;;4981568;28;20018;-72
2021/06/08 03:45:49;;;;;;;10.15;9.07;;;18.10;90.90;;;;;;4975475;28;20412;-73
2021/06/08 03:48:16;;;;;;;9.65;8.65;;;18.10;90.80;;;;;;4974564;28;20042;-73
2021/06/08 03:50:43;;;;;;;10.23;8.50;;;18.10;90.80;;;;;;4988012;28;20037;-72
2021/06/08 03:53:09;;;;;;;10.48;9.20;;;18.10;90.80;;;;;;4987171;28;20033;-73
2021/06/08 03:55:35;;;;;;;11.65;8.07;;;18.10;90.70;;;;;;4970632;28;20078;-73
2021/06/08 03:58:09;;;;;;;10.38;9.20;;;18.10;90.70;;;;;;4971016;28;20082;-73
2021/06/08 04:00:35;;;;;;;10.18;8.55;;;18.10;90.70;;;;;;4968762;28;20039;-73
2021/06/08 04:03:04;;;;;;;13.57;10.23;;;18.10;90.70;;;;;;4981142;28;20031;-72
2021/06/08 04:05:30;;;;;;;12.07;8.75;;;18.10;90.70;;;;;;4981074;28;20038;-73
2021/06/08 04:07:56;;;;;;;11.18;8.85;;;18.10;90.80;;;;;;4980571;28;20031;-72
2021/06/08 04:10:22;;;;;;;9.32;7.47;;;18.10;90.80;;;;;;4967426;28;20027;-72
2021/06/08 04:12:49;;;;;;;10.90;8.52;;;18.10;90.70;;;;;;4970992;28;20035;-72
2021/06/08 04:15:16;;;;;;;12.77;7.60;;;18.10;90.70;;;;;;4985148;28;20496;-73
2021/06/08 04:17:42;;;;;;;8.73;7.82;;;18.20;90.70;;;;;;4980910;28;20042;-72
2021/06/08 04:20:09;;;;;;;10.65;8.82;;;18.20;90.70;;;;;;4976906;28;20034;-73
2021/06/08 04:22:37;;;;;;;10.13;7.53;;;18.20;90.60;;;;;;4974280;28;20095;-73
2021/06/08 04:25:06;;;;;;;9.65;8.05;;;18.20;90.50;;;;;;4990829;28;20157;-73
2021/06/08 04:27:34;;;;;;;11.30;9.15;;;18.20;90.50;;;;;;4974115;28;20042;-72
2021/06/08 04:30:00;;;;;;;11.02;8.38;;;18.20;90.50;;;;;;4974257;28;20031;-73
2021/06/08 04:32:26;;;;;;;12.02;9.00;;;18.20;90.40;;;;;;4974067;28;20042;-73
2021/06/08 04:34:53;;;;;;;9.55;8.27;;;18.20;90.40;;;;;;4974145;28;20033;-73
2021/06/08 04:37:20;;;;;;;9.98;8.75;;;18.20;90.40;;;;;;4973852;28;20027;-73
2021/06/08 04:40:01;;;;;;;10.02;7.88;;;18.30;90.40;;;;;;4965047;28;20058;-73
2021/06/08 04:42:27;;;;;;;12.38;8.85;;;18.20;90.30;;;;;;4967484;28;20042;-73
2021/06/08 04:44:54;;;;;;;11.00;8.32;;;18.20;90.30;;;;;;4974888;28;20030;-72
2021/06/08 04:47:20;;;;;;;9.68;7.05;;;18.20;90.30;;;;;;4973699;28;20090;-72
2021/06/08 04:49:48;;;;;;;8.98;6.90;;;18.30;90.40;;;;;;4974431;28;20034;-73
2021/06/08 04:52:14;;;;;;;8.88;7.20;;;18.30;90.20;;;;;;4980431;28;20493;-73
2021/06/08 04:54:41;;;;;;;11.10;8.48;;;18.40;90.10;;;;;;4973859;28;20081;-75
2021/06/08 04:57:10;;;;;;;11.23;8.73;;;18.30;90.00;;;;;;4956793;28;20026;-74
2021/06/08 04:59:42;;;;;;;9.57;7.30;;;18.30;90.00;;;;;;4977487;28;20034;-74
2021/06/08 05:02:16;;;;;;;11.70;9.25;;;18.30;90.10;;;;;;4972502;28;20062;-74
2021/06/08 05:04:44;;;;;;;10.60;8.32;;;18.30;90.00;;;;;;4972615;28;20023;-75
2021/06/08 05:07:13;;;;;;;7.50;6.68;;;18.20;90.10;;;;;;4972682;28;20033;-73
2021/06/08 05:09:44;;;;;;;13.60;7.97;;;18.20;90.10;;;;;;4955680;28;20444;-73
2021/06/08 05:12:12;;;;;;;13.00;8.20;;;18.20;90.10;;;;;;4971996;28;20027;-72
2021/06/08 05:14:44;;;;;;;9.73;7.65;;;18.20;90.00;;;;;;4950740;29;20421;-72
2021/06/08 05:17:10;;;;;;;8.73;7.28;;;18.20;90.00;;;;;;4979475;28;20030;-73
2021/06/08 05:19:38;;;;;;;9.02;8.00;;;18.20;90.10;;;;;;4970725;28;20066;-72
2021/06/08 05:22:05;;;;;;;8.60;6.93;;;18.20;90.10;;;;;;4980934;28;20041;-72
2021/06/08 05:24:31;;;;;;;8.07;6.32;;;18.20;90.10;;;;;;4975700;28;20031;-73
2021/06/08 05:26:57;;;;;;;9.57;7.40;;;18.20;90.10;;;;;;4979914;28;20499;-73
2021/06/08 05:29:24;;;;;;;8.00;6.55;;;18.20;90.10;;;;;;4970722;28;20027;-73
2021/06/08 05:31:55;;;;;;;7.28;6.28;;;18.20;90.10;;;;;;4973176;28;20031;-73
2021/06/08 05:34:21;;;;;;;7.68;6.97;;;18.30;90.10;;;;;;4971547;28;20067;-74
2021/06/08 05:36:47;;;;;;;9.15;7.85;;;18.30;90.10;;;;;;4975774;28;20034;-73
2021/06/08 05:39:13;;;;;;;11.52;7.88;;;18.30;90.00;;;;;;4956864;28;20551;-76
2021/06/08 05:41:39;;;;;;;8.70;6.63;;;18.30;89.90;;;;;;4970165;28;20102;-72
2021/06/08 05:44:06;;;;;;;11.55;8.43;;;18.30;89.90;;;;;;4970509;28;20149;-73
2021/06/08 05:46:33;;;;;;;10.93;6.95;;;18.30;89.90;;;;;;4970160;28;20031;-74
2021/06/08 05:49:04;;;;;;;10.15;6.80;;;18.40;90.00;;;;;;4971798;28;20034;-70
2021/06/08 05:51:32;;;;;;;8.45;7.32;;;18.40;89.90;;;;;;4967604;28;20046;-69
2021/06/08 05:53:58;;;;;;;9.32;7.38;;;18.40;89.70;;;;;;4969078;28;20022;-69
2021/06/08 05:56:25;;;;;;;9.52;7.60;;;18.40;89.30;;;;;;4970073;28;20031;-69
2021/06/08 05:58:54;;;;;;;6.88;5.85;;;18.40;89.10;;;;;;4970888;28;20034;-70
2021/06/08 06:01:22;;;;;;;9.70;6.70;;;18.40;89.20;;;;;;4973194;28;20042;-68
2021/06/08 06:03:50;;;;;;;7.05;6.25;;;18.50;89.30;;;;;;4969671;28;20106;-69
2021/06/08 06:06:16;;;;;;;9.32;7.07;;;18.50;89.20;;;;;;4970280;28;20031;-70
2021/06/08 06:08:41;;;;;;;12.82;7.82;;;18.60;88.90;;;;;;4935913;28;20134;-73
2021/06/08 06:11:09;;;;;;;7.45;6.60;;;18.50;88.50;;;;;;4969473;28;20166;-72
2021/06/08 06:13:43;;;;;;;8.60;6.30;;;18.50;88.50;;;;;;4969773;28;20121;-70
2021/06/08 06:16:10;;;;;;;9.85;7.82;;;18.50;88.50;;;;;;4969193;28;20454;-70
2021/06/08 06:18:38;;;;;;;7.40;5.90;;;18.50;87.80;;;;;;4969803;28;20393;-70
2021/06/08 06:21:04;;;;;;;7.38;5.97;;;18.50;88.30;;;;;;4953834;28;20031;-70
2021/06/08 06:23:34;;;;;;;8.13;6.93;;;18.50;88.30;;;;;;4966102;28;20032;-70
2021/06/08 06:26:00;;;;;;;7.38;5.88;;;18.50;88.20;;;;;;4969116;28;20109;-70
2021/06/08 06:28:26;;;;;;;8.48;6.15;;;18.60;88.20;;;;;;4970247;28;20161;-74
2021/06/08 06:30:53;;;;;;;6.40;5.68;;;18.60;88.10;;;;;;4970272;28;20131;-73
2021/06/08 06:33:22;;;;;;;7.60;6.75;;;18.60;88.00;;;;;;4970564;28;20038;-73
2021/06/08 06:35:48;;;;;;;6.80;6.03;;;18.70;87.80;;;;;;4973609;28;20041;-73
2021/06/08 06:38:15;;;;;;;6.18;5.57;;;18.70;87.80;;;;;;4972822;28;20500;-73
2021/06/08 06:40:42;;;;;;;7.22;5.80;;;18.70;87.60;;;;;;4972520;28;20045;-72
2021/06/08 06:43:15;;;;;;;7.07;5.80;;;18.80;87.70;;;;;;4973203;28;20031;-73
2021/06/08 06:45:42;;;;;;;6.93;5.65;;;18.70;87.50;;;;;;4960942;28;20027;-72
2021/06/08 06:48:12;;;;;;;6.30;5.47;;;18.80;87.40;;;;;;4971608;28;20026;-73
2021/06/08 06:50:41;;;;;;;6.80;5.88;;;18.80;87.30;;;;;;4974118;28;20041;-73
2021/06/08 06:53:07;;;;;;;6.68;5.20;;;18.80;87.30;;;;;;4973461;28;20497;-73
2021/06/08 06:55:33;;;;;;;6.97;5.57;;;18.80;87.30;;;;;;4974785;28;20114;-74
2021/06/08 06:58:00;;;;;;;6.88;5.32;;;18.90;87.40;;;;;;4972577;28;20066;-73
2021/06/08 07:00:27;;;;;;;7.22;5.57;;;18.90;87.30;;;;;;4973044;28;20035;-73
2021/06/08 07:02:55;;;;;;;6.60;5.65;;;18.90;87.20;;;;;;4969616;28;20114;-73
2021/06/08 07:05:24;;;;;;;7.15;6.05;;;19.00;87.10;;;;;;4974977;28;20027;-73
2021/06/08 07:07:51;;;;;;;7.45;5.35;;;19.00;86.80;;;;;;4971901;28;20042;-73
2021/06/08 07:10:20;;;;;;;6.50;5.82;;;19.00;86.90;;;;;;4973659;28;20117;-73
2021/06/08 07:12:47;;;;;;;6.32;5.50;;;19.10;87.00;;;;;;4974184;28;20409;-73
2021/06/08 07:15:14;;;;;;;5.75;5.10;;;19.10;86.90;;;;;;4970532;28;20548;-73
2021/06/08 07:17:41;;;;;;;5.82;4.97;;;19.10;86.50;;;;;;4972514;28;20553;-72
2021/06/08 07:20:09;;;;;;;7.30;6.18;;;19.20;86.70;;;;;;4977639;28;20042;-73
2021/06/08 07:22:36;;;;;;;11.85;6.93;;;19.20;86.60;;;;;;4974524;28;20037;-72
2021/06/08 07:25:03;;;;;;;5.85;5.07;;;19.20;86.40;;;;;;4973972;28;20034;-73
2021/06/08 07:27:29;;;;;;;6.90;4.97;;;19.20;86.60;;;;;;4971646;28;20029;-73
2021/06/08 07:29:56;;;;;;;6.30;5.00;;;19.30;86.60;;;;;;4977437;28;20022;-73
2021/06/08 07:32:40;;;;;;;5.97;5.38;;;19.40;86.50;;;;;;4974165;28;20039;-73
2021/06/08 07:35:08;;;;;;;5.65;5.15;;;19.50;86.40;;;;;;4973504;28;20061;-73
2021/06/08 07:37:39;;;;;;;5.80;4.78;;;19.60;86.00;;;;;;4972189;28;20039;-73
2021/06/08 07:40:08;;;;;;;;;;;19.60;85.90;;;;;;4973279;28;20037;-73
2021/06/08 07:42:39;;;;;;;4.93;4.40;;;19.70;85.30;;;;;;4973631;28;19953;-74
2021/06/08 07:45:08;;;;;;;6.45;5.57;;;19.70;85.20;;;;;;4972584;28;20485;-72
2021/06/08 07:47:35;;;;;;;5.60;4.75;;;19.80;85.00;;;;;;4973019;28;20065;-74
2021/06/08 07:50:06;;;;;;;7.00;5.35;;;19.80;85.30;;;;;;4972502;28;20050;-73
2021/06/08 07:52:32;;;;;;;;;;;19.80;85.20;;;;;;4974316;28;20034;-74
2021/06/08 07:54:58;;;;;;;5.30;4.80;;;19.80;84.40;;;;;;4972604;28;19969;-73
2021/06/08 07:57:24;;;;;;;6.57;5.85;;;19.80;84.60;;;;;;4956115;28;20043;-73
2021/06/08 07:59:51;;;;;;;5.60;4.47;;;19.80;84.30;;;;;;4971975;28;20031;-73
2021/06/08 08:02:21;;;;;;;5.70;4.35;;;19.90;84.20;;;;;;4972219;28;20062;-74
2021/06/08 08:04:52;;;;;;;5.75;4.93;;;19.90;84.10;;;;;;4974263;28;20027;-74
2021/06/08 08:07:22;;;;;;;6.63;5.28;;;19.90;84.20;;;;;;4972058;28;20026;-73
2021/06/08 08:09:48;;;;;;;6.18;4.68;;;20.00;84.40;;;;;;4971892;28;20447;-72
2021/06/08 08:12:14;;;;;;;6.82;4.57;;;20.10;84.30;;;;;;4972350;28;20062;-73
2021/06/08 08:14:43;;;;;;;6.97;5.05;;;20.20;84.10;;;;;;4971753;28;20121;-73
2021/06/08 08:17:11;;;;;;;8.48;5.07;;;20.20;83.80;;;;;;4976372;28;20500;-74
2021/06/08 08:19:38;;;;;;;5.07;4.20;;;20.20;83.20;;;;;;4972200;28;20035;-74
2021/06/08 08:22:04;;;;;;;5.60;4.72;;;20.20;82.90;;;;;;4966760;28;20306;-74
2021/06/08 08:24:30;;;;;;;6.38;5.05;;;20.20;82.90;;;;;;4972477;28;20031;-73
2021/06/08 08:26:56;;;;;;;5.60;4.97;;;20.20;82.20;;;;;;4975377;28;20038;-72
2021/06/08 08:29:22;;;;;;;7.40;4.78;;;20.20;82.50;;;;;;4975025;28;20035;-72
2021/06/08 08:31:48;;;;;;;6.53;4.72;;;20.20;82.50;;;;;;4971542;28;20019;-74
2021/06/08 08:34:14;;;;;;;6.25;4.53;;;20.20;82.60;;;;;;4970529;28;20039;-71
2021/06/08 08:36:40;;;;;;;6.38;4.53;;;20.30;82.60;;;;;;4972615;28;20031;-74
2021/06/08 08:39:08;;;;;;;5.55;4.40;;;20.40;82.50;;;;;;4969824;28;20116;-72
2021/06/08 08:41:34;;;;;;;6.45;4.78;;;20.40;82.60;;;;;;4970091;28;20045;-74
2021/06/08 08:44:00;;;;;;;6.15;4.88;;;20.40;81.80;;;;;;4970635;28;20083;-74
2021/06/08 08:46:26;;;;;;;4.25;3.80;;;20.50;82.00;;;;;;4971729;28;20402;-72
2021/06/08 08:48:57;;;;;;;7.20;5.22;;;20.50;82.10;;;;;;4970782;28;20118;-74
2021/06/08 08:51:24;;;;;;;4.90;4.40;;;20.60;82.30;;;;;;4953703;28;20042;-72
2021/06/08 08:53:53;;;;;;;6.05;4.60;;;20.60;82.10;;;;;;4969940;28;20031;-73
2021/06/08 08:56:21;;;;;;;6.10;4.60;;;20.60;81.90;;;;;;4971557;28;20037;-72
2021/06/08 08:58:47;;;;;;;4.82;4.32;;;20.70;81.40;;;;;;4968615;28;20030;-71
2021/06/08 09:01:13;;;;;;;5.93;4.07;;;20.70;81.30;;;;;;4970423;28;20472;-71
2021/06/08 09:03:39;;;;;;;6.72;4.10;;;20.80;81.40;;;;;;4971238;28;20058;-71
2021/06/08 09:06:07;;;;;;;6.85;4.85;;;20.90;81.10;;;;;;4969509;28;20030;-72
2021/06/08 09:08:33;;;;;;;5.97;4.30;;;21.00;80.90;;;;;;4969962;28;20030;-72
2021/06/08 09:11:00;;;;;;;4.30;3.63;;;21.10;80.40;;;;;;4970947;28;20054;-72
2021/06/08 09:13:26;;;;;;;6.70;4.57;;;21.10;80.40;;;;;;4971436;28;20038;-72
2021/06/08 09:15:53;;;;;;;6.28;4.95;;;21.20;80.40;;;;;;4971316;28;20018;-73
2021/06/08 09:18:20;;;;;;;4.35;3.85;;;21.10;78.60;;;;;;4971397;28;20058;-73
2021/06/08 09:20:46;;;;;;;6.18;4.07;;;21.10;78.60;;;;;;4975009;28;20884;-73
2021/06/08 09:23:12;;;;;;;5.32;4.00;;;21.20;79.20;;;;;;4970972;28;20035;-73
2021/06/08 09:25:45;;;;;;;5.75;3.72;;;21.30;79.30;;;;;;4970357;28;20053;-71
2021/06/08 09:28:23;;;;;;;5.72;4.55;;;21.40;79.40;;;;;;4969581;28;20026;-71
2021/06/08 09:31:13;;;;;;;7.10;4.43;;;21.50;78.80;;;;;;4972582;28;20457;-75
2021/06/08 09:33:48;;;;;;;4.65;3.72;;;21.60;77.80;;;;;;4967189;28;20489;-72
2021/06/08 09:36:22;;;;;;;5.75;3.85;;;21.70;77.30;;;;;;4971062;28;20062;-72
2021/06/08 09:39:02;;;;;;;4.97;4.05;;;21.80;77.00;;;;;;4968406;28;20162;-72
2021/06/08 09:41:44;;;;;;;5.03;3.97;;;21.90;75.60;;;;;;4969986;28;20170;-73
2021/06/08 09:44:14;;;;;;;6.15;3.75;;;22.00;75.90;;;;;;4969017;28;20045;-74
2021/06/08 09:46:50;;;;;;;5.30;3.47;;;22.10;75.80;;;;;;4967982;28;20030;-73
2021/06/08 09:49:17;;;;;;;4.47;3.40;;;22.20;75.00;;;;;;4969600;28;20138;-72
2021/06/08 09:51:47;;;;;;;3.80;3.38;;;22.30;74.90;;;;;;4969482;28;20111;-72
2021/06/08 09:54:40;;;;;;;4.45;3.08;;;22.40;75.40;;;;;;4969324;28;20093;-73
2021/06/08 09:57:13;;;;;;;6.28;3.45;;;22.60;75.70;;;;;;4962283;28;20489;-72
2021/06/08 09:59:47;;;;;;;3.63;3.10;;;22.60;75.00;;;;;;4966967;28;20030;-72
2021/06/08 10:02:35;;;;;;;8.95;4.35;;;22.60;74.30;;;;;;4967178;28;20031;-72
2021/06/08 10:05:23;;;;;;;5.53;3.65;;;22.60;71.00;;;;;;4970778;28;20041;-72
2021/06/08 10:07:59;;;;;;;6.43;3.33;;;22.70;71.50;;;;;;4968803;28;20030;-73
2021/06/08 10:10:39;;;;;;;6.22;3.47;;;22.70;71.30;;;;;;4967893;28;20481;-71
2021/06/08 10:13:09;;;;;;;3.38;3.03;;;22.70;70.20;;;;;;4970916;28;20117;-73
2021/06/08 10:15:36;;;;;;;4.88;3.13;;;22.70;70.50;;;;;;4972420;28;20158;-72
2021/06/08 10:18:08;;;;;;;4.25;2.92;;;22.70;68.90;;;;;;4969770;28;20061;-72
2021/06/08 10:20:37;;;;;;;3.17;2.60;;;22.70;68.30;;;;;;4948801;28;20504;-72
2021/06/08 10:23:26;;;;;;;3.97;2.92;;;22.80;69.00;;;;;;4967137;28;20114;-72
2021/06/08 10:26:01;;;;;;;3.22;2.88;;;23.00;68.80;;;;;;4963656;28;20509;-71
2021/06/08 10:28:28;;;;;;;3.53;2.67;;;23.10;68.10;;;;;;4970382;28;20421;-71
2021/06/08 10:30:56;;;;;;;4.88;2.60;;;23.00;68.20;;;;;;4970146;28;20489;-73
2021/06/08 10:33:26;;;;;;;6.03;3.50;;;23.00;68.70;;;;;;4968398;28;20045;-73
2021/06/08 10:35:53;;;;;;;6.85;3.55;;;23.00;69.00;;;;;;4965343;28;20081;-71
2021/06/08 10:38:19;;;;;;;3.60;3.30;;;23.10;69.00;;;;;;4965245;28;20039;-73
2021/06/08 10:40:50;;;;;;;3.60;2.63;;;23.00;68.20;;;;;;4965197;28;20038;-72
2021/06/08 10:43:19;;;;;;;6.53;2.90;;;23.10;67.00;;;;;;4958533;28;20117;-71
2021/06/08 10:45:46;;;;;;;6.15;3.00;;;23.10;68.60;;;;;;4959077;28;20055;-72
2021/06/08 10:48:17;;;;;;;3.70;2.75;;;23.00;68.10;;;;;;4969119;28;20030;-72
2021/06/08 10:50:46;;;;;;;4.50;3.03;;;23.00;68.20;;;;;;4967868;28;20038;-72
2021/06/08 10:53:30;;;;;;;3.65;2.55;;;22.90;68.00;;;;;;4975150;28;20113;-72
2021/06/08 10:55:56;;;;;;;4.20;3.10;;;22.90;67.80;;;;;;4963824;28;20042;-70
2021/06/08 10:58:42;;;;;;;3.53;3.05;;;22.90;68.20;;;;;;4969754;28;20575;-72
2021/06/08 11:01:31;;;;;;;3.33;3.00;;;23.00;64.30;;;;;;4971025;28;20098;-72
2021/06/08 11:03:59;;;;;;;6.82;3.08;;;23.10;67.00;;;;;;4966594;28;20035;-72
2021/06/08 11:06:36;;;;;;;5.07;2.90;;;23.20;65.30;;;;;;4970080;28;20038;-68
2021/06/08 11:09:08;;;;;;;5.03;3.03;;;23.30;65.50;;;;;;4970723;28;20418;-68
2021/06/08 11:11:55;;;;;;;4.20;2.67;;;23.40;65.50;;;;;;4970855;28;20482;-70
2021/06/08 11:17:34;;;;;;;2.90;2.10;;;24.00;65.70;;;;;;4968231;28;20635;-69
2021/06/08 11:20:14;;;;;;;2.85;2.15;;;24.30;64.10;;;;;;4950249;28;20136;-72
2021/06/08 11:22:39;;;;;;;3.78;2.20;;;24.30;63.10;;;;;;4972886;28;20113;-73
2021/06/08 11:25:07;;;;;;;4.65;2.65;;;24.50;63.10;;;;;;4972580;28;20114;-72
2021/06/08 11:27:54;;;;;;;5.90;2.95;;;24.90;63.30;;;;;;4973816;28;20110;-73
2021/06/08 11:30:51;;;;;;;2.88;2.22;;;26.60;61.80;;;;;;4973013;28;20088;-74
2021/06/08 11:33:30;;;;;;;3.97;2.67;;;28.70;54.60;;;;;;4959685;28;20508;-68
2021/06/08 11:35:56;;;;;;;2.90;2.58;;;30.40;50.30;;;;;;4973574;28;20481;-69
2021/06/08 11:38:30;;;;;;;5.80;3.25;;;31.40;46.40;;;;;;4971904;28;20823;-71
2021/06/08 11:41:02;;;;;;;3.75;2.10;;;32.50;45.30;;;;;;4972941;28;20466;-69
2021/06/08 11:43:27;;;;;;;3.78;2.30;;;32.70;41.70;;;;;;4972712;28;20043;-70
2021/06/08 11:46:12;;;;;;;3.92;3.05;;;31.60;41.80;;;;;;4975209;28;20109;-72
2021/06/08 11:48:46;;;;;;;3.20;2.65;;;29.80;42.40;;;;;;4971137;28;20022;-70
2021/06/08 11:51:15;;;;;;;3.33;3.00;;;28.90;45.30;;;;;;4970275;28;20527;-70
2021/06/08 11:54:04;;;;;;;2.95;2.42;;;28.40;47.60;;;;;;4973117;28;20034;-70
2021/06/08 11:56:48;;;;;;;3.85;2.53;;;27.90;47.40;;;;;;4973718;28;20039;-69
2021/06/08 11:59:19;;;;;;;4.38;2.42;;;27.10;49.80;;;;;;4971880;28;20407;-69
2021/06/08 12:01:48;;;;;;;2.65;2.42;;;27.40;51.60;;;;;;4972744;28;20447;-71
2021/06/08 12:04:14;;;;;;;3.53;2.30;;;28.60;48.20;;;;;;4973749;28;20488;-73
2021/06/08 12:07:03;;;;;;;3.42;2.30;;;29.60;46.60;;;;;;4972667;28;20031;-72
2021/06/08 12:09:34;;;;;;;3.08;2.58;;;30.20;44.20;;;;;;4972525;28;20038;-73
2021/06/08 12:12:07;;;;;;;3.72;2.30;;;29.60;45.50;;;;;;4974691;28;20019;-72
2021/06/08 12:14:33;;;;;;;2.60;2.40;;;28.70;47.20;;;;;;4975192;28;20023;-71
2021/06/08 12:17:00;;;;;;;2.88;2.28;;;27.90;47.80;;;;;;4969370;28;20042;-72
2021/06/08 12:19:29;;;;;;;3.75;2.65;;;27.30;49.40;;;;;;4954509;28;20401;-71
2021/06/08 12:22:23;;;;;;;4.93;2.35;;;27.30;51.10;;;;;;4969757;28;20071;-72
2021/06/08 12:25:01;;;;;;;3.63;2.20;;;27.80;49.40;;;;;;4972208;28;20038;-72
2021/06/08 12:27:40;;;;;;;3.05;2.45;;;28.00;48.60;;;;;;4970433;28;20019;-73
2021/06/08 12:30:19;;;;;;;3.10;2.50;;;28.00;48.90;;;;;;4971181;28;20038;-72
2021/06/08 12:33:00;;;;;;;5.35;2.58;;;28.40;49.90;;;;;;4969831;28;20117;-71
2021/06/08 12:35:46;;;;;;;5.20;2.28;;;29.00;48.10;;;;;;4972293;28;20264;-71
2021/06/08 12:38:25;;;;;;;3.40;2.35;;;29.20;46.10;;;;;;4969734;28;20046;-71
2021/06/08 12:41:02;;;;;;;3.03;2.00;;;29.20;45.50;;;;;;4978845;28;20054;-72
2021/06/08 12:43:39;;;;;;;2.60;2.22;;;29.70;45.00;;;;;;4972049;28;20030;-72
2021/06/08 12:46:04;;;;;;;3.03;2.13;;;30.20;45.10;;;;;;4971527;28;20057;-71
2021/06/08 12:48:30;;;;;;;6.78;2.75;;;30.70;43.30;;;;;;4970951;28;20058;-67
2021/06/08 12:50:56;;;;;;;3.05;2.28;;;31.20;43.70;;;;;;4970372;28;20027;-69
2021/06/08 12:53:25;;;;;;;2.92;2.08;;;31.50;42.00;;;;;;4971961;28;20046;-70
2021/06/08 12:55:53;;;;;;;4.00;2.45;;;31.10;41.30;;;;;;4972101;28;20111;-69
2021/06/08 12:58:20;;;;;;;4.35;2.50;;;30.20;42.10;;;;;;4971844;28;20497;-70
2021/06/08 13:00:50;;;;;;;2.72;2.30;;;29.40;43.40;;;;;;4972003;28;20042;-70
2021/06/08 13:03:16;;;;;;;3.58;2.03;;;29.10;44.80;;;;;;4973583;28;20030;-70
2021/06/08 13:05:42;;;;;;;3.85;2.20;;;29.00;43.30;;;;;;4971403;28;20054;-71
2021/06/08 13:08:09;;;;;;;2.47;1.95;;;28.60;45.30;;;;;;4969219;28;20105;-71
2021/06/08 13:10:38;;;;;;;3.38;1.98;;;28.30;45.50;;;;;;4972097;28;20507;-70
2021/06/08 13:13:12;;;;;;;2.75;1.90;;;28.00;47.10;;;;;;4969673;28;20494;-72
2021/06/08 13:15:41;;;;;;;2.33;1.70;;;27.80;48.10;;;;;;4959866;28;20031;-72
2021/06/08 13:18:14;;;;;;;2.65;1.55;;;27.70;46.80;;;;;;4970530;28;20035;-73
2021/06/08 13:20:48;;;;;;;2.53;1.50;;;27.60;45.90;;;;;;4970941;28;20167;-74
2021/06/08 13:23:33;;;;;;;2.72;1.73;;;27.20;44.70;;;;;;4969711;28;20037;-71
2021/06/08 13:26:12;;;;;;;3.38;1.52;;;26.90;46.90;;;;;;4970565;28;20034;-72
2021/06/08 13:28:40;;;;;;;1.40;1.30;;;27.10;47.60;;;;;;4968986;28;20022;-72
2021/06/08 13:31:13;;;;;;;1.83;1.30;;;27.50;46.70;;;;;;4971367;28;20343;-73
2021/06/08 13:33:41;;;;;;;1.65;1.40;;;28.00;45.50;;;;;;4971025;28;20037;-73
2021/06/08 13:36:25;;;;;;;2.53;1.42;;;28.60;43.60;;;;;;4970764;28;20062;-73
2021/06/08 13:38:51;;;;;;;2.03;1.30;;;29.20;42.60;;;;;;4955229;28;20037;-72
2021/06/08 13:41:17;;;;;;;2.08;1.45;;;29.20;41.20;;;;;;4971499;28;20034;-71
2021/06/08 13:43:45;;;;;;;2.00;1.52;;;28.70;41.90;;;;;;4953395;28;20034;-72
2021/06/08 13:46:16;;;;;;;2.42;1.50;;;28.20;42.80;;;;;;4970130;28;20181;-72
2021/06/08 13:48:54;;;;;;;3.08;1.45;;;27.70;43.10;;;;;;4951590;28;20023;-72
2021/06/08 13:51:23;;;;;;;2.25;1.40;;;28.00;43.10;;;;;;4971686;28;20038;-73
2021/06/08 13:54:09;;;;;;;2.05;1.60;;;29.00;42.30;;;;;;4964636;28;20353;-73